sensor_id;sensor_type;location;lat;lon;timestamp;temperature;humidity
19646;DHT22;9971;52.446;13.452;2023-02-27T00:04:50;11.20;96.40
19646;DHT22;9971;52.446;13.452;2023-02-27T00:09:52;11.40;94.40
19646;DHT22;9971;52.446;13.452;2023-02-27T00:14:55;11.50;92.70
19646;DHT22;9971;52.446;13.452;2023-02-27T00:19:57;11.70;91.40
19646;DHT22;9971;52.446;13.452;2023-02-27T00:24:59;11.80;89.90
19646;DHT22;9971;52.446;13.452;2023-02-27T00:30:05;11.90;89.60
19646;DHT22;9971;52.446;13.452;2023-02-27T00:35:08;12.10;87.60
19646;DHT22;9971;52.446;13.452;2023-02-27T00:40:10;12.20;87.00
19646;DHT22;9971;52.446;13.452;2023-02-27T00:45:13;12.30;85.60
19646;DHT22;9971;52.446;13.452;2023-02-27T00:50:15;12.40;84.10
19646;DHT22;9971;52.446;13.452;2023-02-27T00:55:17;12.50;83.10
19646;DHT22;9971;52.446;13.452;2023-02-27T01:00:20;12.60;81.90
19646;DHT22;9971;52.446;13.452;2023-02-27T01:05:22;12.70;81.00
19646;DHT22;9971;52.446;13.452;2023-02-27T01:10:25;12.80;80.00
19646;DHT22;9971;52.446;13.452;2023-02-27T01:15:27;12.90;79.40
19646;DHT22;9971;52.446;13.452;2023-02-27T01:20:30;13.00;79.10
19646;DHT22;9971;52.446;13.452;2023-02-27T01:25:32;13.10;78.80
19646;DHT22;9971;52.446;13.452;2023-02-27T01:30:35;13.10;78.30
19646;DHT22;9971;52.446;13.452;2023-02-27T01:35:37;13.30;77.30
19646;DHT22;9971;52.446;13.452;2023-02-27T01:40:40;13.30;76.50
19646;DHT22;9971;52.446;13.452;2023-02-27T01:45:43;13.40;75.10
19646;DHT22;9971;52.446;13.452;2023-02-27T01:50:47;13.40;74.40
19646;DHT22;9971;52.446;13.452;2023-02-27T01:55:46;13.50;74.10
19646;DHT22;9971;52.446;13.452;2023-02-27T02:00:48;13.50;73.40
19646;DHT22;9971;52.446;13.452;2023-02-27T02:05:51;13.60;73.40
19646;DHT22;9971;52.446;13.452;2023-02-27T02:10:53;13.60;73.20
19646;DHT22;9971;52.446;13.452;2023-02-27T02:16:09;13.70;73.00
19646;DHT22;9971;52.446;13.452;2023-02-27T02:21:48;13.70;72.50
19646;DHT22;9971;52.446;13.452;2023-02-27T02:26:48;13.80;71.90
19646;DHT22;9971;52.446;13.452;2023-02-27T02:32:09;13.90;71.20
19646;DHT22;9971;52.446;13.452;2023-02-27T02:42:24;14.00;70.10
19646;DHT22;9971;52.446;13.452;2023-02-27T02:47:41;14.00;69.90
19646;DHT22;9971;52.446;13.452;2023-02-27T02:58:11;14.10;69.40
19646;DHT22;9971;52.446;13.452;2023-02-27T03:03:14;14.20;69.20
19646;DHT22;9971;52.446;13.452;2023-02-27T03:08:14;14.20;69.00
19646;DHT22;9971;52.446;13.452;2023-02-27T03:13:21;14.20;68.90
19646;DHT22;9971;52.446;13.452;2023-02-27T03:18:23;14.20;68.90
19646;DHT22;9971;52.446;13.452;2023-02-27T03:23:30;14.20;68.70
19646;DHT22;9971;52.446;13.452;2023-02-27T03:28:31;14.30;68.70
19646;DHT22;9971;52.446;13.452;2023-02-27T03:33:49;14.30;68.70
19646;DHT22;9971;52.446;13.452;2023-02-27T03:38:55;14.30;68.00
19646;DHT22;9971;52.446;13.452;2023-02-27T03:44:13;14.30;67.50
19646;DHT22;9971;52.446;13.452;2023-02-27T03:49:12;14.40;67.30
19646;DHT22;9971;52.446;13.452;2023-02-27T03:54:16;14.40;66.90
19646;DHT22;9971;52.446;13.452;2023-02-27T03:59:17;14.40;66.60
19646;DHT22;9971;52.446;13.452;2023-02-27T04:04:19;14.40;66.50
19646;DHT22;9971;52.446;13.452;2023-02-27T04:10:03;14.40;66.60
19646;DHT22;9971;52.446;13.452;2023-02-27T04:20:13;14.50;66.20
19646;DHT22;9971;52.446;13.452;2023-02-27T04:25:38;14.50;65.70
19646;DHT22;9971;52.446;13.452;2023-02-27T04:30:47;14.50;66.40
19646;DHT22;9971;52.446;13.452;2023-02-27T04:35:49;14.60;65.70
19646;DHT22;9971;52.446;13.452;2023-02-27T04:40:54;14.60;65.80
19646;DHT22;9971;52.446;13.452;2023-02-27T04:45:54;14.50;65.80
19646;DHT22;9971;52.446;13.452;2023-02-27T04:51:01;14.60;66.20
19646;DHT22;9971;52.446;13.452;2023-02-27T04:56:03;14.50;65.90
19646;DHT22;9971;52.446;13.452;2023-02-27T05:01:07;14.60;65.80
19646;DHT22;9971;52.446;13.452;2023-02-27T05:06:07;14.60;65.40
19646;DHT22;9971;52.446;13.452;2023-02-27T05:11:14;14.60;65.10
19646;DHT22;9971;52.446;13.452;2023-02-27T05:16:19;14.60;65.00
19646;DHT22;9971;52.446;13.452;2023-02-27T05:21:25;14.60;64.60
19646;DHT22;9971;52.446;13.452;2023-02-27T05:26:38;14.60;64.20
19646;DHT22;9971;52.446;13.452;2023-02-27T05:31:42;14.60;64.10
19646;DHT22;9971;52.446;13.452;2023-02-27T05:36:45;14.60;63.90
19646;DHT22;9971;52.446;13.452;2023-02-27T05:41:49;14.60;64.50
19646;DHT22;9971;52.446;13.452;2023-02-27T05:46:52;14.60;63.70
19646;DHT22;9971;52.446;13.452;2023-02-27T05:51:53;14.60;63.80
19646;DHT22;9971;52.446;13.452;2023-02-27T05:56:55;14.60;63.80
19646;DHT22;9971;52.446;13.452;2023-02-27T06:01:57;14.60;63.50
19646;DHT22;9971;52.446;13.452;2023-02-27T06:06:59;14.60;64.50
19646;DHT22;9971;52.446;13.452;2023-02-27T06:12:02;14.60;64.70
19646;DHT22;9971;52.446;13.452;2023-02-27T06:17:04;14.60;64.90
19646;DHT22;9971;52.446;13.452;2023-02-27T06:22:07;14.60;64.90
19646;DHT22;9971;52.446;13.452;2023-02-27T06:27:09;14.60;64.70
19646;DHT22;9971;52.446;13.452;2023-02-27T06:32:12;14.60;65.00
19646;DHT22;9971;52.446;13.452;2023-02-27T06:37:14;14.60;64.50
19646;DHT22;9971;52.446;13.452;2023-02-27T06:42:16;14.60;65.20
19646;DHT22;9971;52.446;13.452;2023-02-27T06:47:19;14.60;65.60
19646;DHT22;9971;52.446;13.452;2023-02-27T06:52:21;14.60;66.10
19646;DHT22;9971;52.446;13.452;2023-02-27T06:57:24;14.60;66.50
19646;DHT22;9971;52.446;13.452;2023-02-27T07:02:26;14.60;67.30
19646;DHT22;9971;52.446;13.452;2023-02-27T07:07:28;14.60;67.40
19646;DHT22;9971;52.446;13.452;2023-02-27T07:12:30;14.70;67.90
19646;DHT22;9971;52.446;13.452;2023-02-27T07:17:33;14.70;68.60
19646;DHT22;9971;52.446;13.452;2023-02-27T07:22:35;14.70;69.10
19646;DHT22;9971;52.446;13.452;2023-02-27T07:27:38;14.70;69.70
19646;DHT22;9971;52.446;13.452;2023-02-27T07:32:40;14.70;70.00
19646;DHT22;9971;52.446;13.452;2023-02-27T07:37:43;14.70;70.30
19646;DHT22;9971;52.446;13.452;2023-02-27T07:42:46;14.80;70.50
19646;DHT22;9971;52.446;13.452;2023-02-27T07:47:47;14.80;70.70
19646;DHT22;9971;52.446;13.452;2023-02-27T07:52:50;14.80;70.90
19646;DHT22;9971;52.446;13.452;2023-02-27T07:57:51;14.80;71.30
19646;DHT22;9971;52.446;13.452;2023-02-27T08:02:54;14.80;72.40
19646;DHT22;9971;52.446;13.452;2023-02-27T08:07:56;14.80;72.40
19646;DHT22;9971;52.446;13.452;2023-02-27T08:12:59;14.90;72.40
19646;DHT22;9971;52.446;13.452;2023-02-27T08:18:01;14.90;72.40
19646;DHT22;9971;52.446;13.452;2023-02-27T08:23:03;14.90;72.70
19646;DHT22;9971;52.446;13.452;2023-02-27T08:28:06;14.90;73.50
19646;DHT22;9971;52.446;13.452;2023-02-27T08:33:08;14.90;74.10
19646;DHT22;9971;52.446;13.452;2023-02-27T08:38:10;14.90;79.50
19646;DHT22;9971;52.446;13.452;2023-02-27T08:43:13;14.90;82.80
19646;DHT22;9971;52.446;13.452;2023-02-27T08:48:16;14.90;89.60
19646;DHT22;9971;52.446;13.452;2023-02-27T08:53:18;15.00;90.40
19646;DHT22;9971;52.446;13.452;2023-02-27T08:58:20;15.00;89.70
19646;DHT22;9971;52.446;13.452;2023-02-27T09:03:22;15.00;89.70
19646;DHT22;9971;52.446;13.452;2023-02-27T09:08:25;15.00;90.00
19646;DHT22;9971;52.446;13.452;2023-02-27T09:13:27;15.00;89.30
19646;DHT22;9971;52.446;13.452;2023-02-27T09:18:30;15.00;89.30
19646;DHT22;9971;52.446;13.452;2023-02-27T09:23:32;15.00;86.50
19646;DHT22;9971;52.446;13.452;2023-02-27T09:28:35;15.10;85.80
19646;DHT22;9971;52.446;13.452;2023-02-27T09:33:36;15.10;82.50
19646;DHT22;9971;52.446;13.452;2023-02-27T09:38:38;15.10;87.60
19646;DHT22;9971;52.446;13.452;2023-02-27T09:43:43;15.10;93.60
19646;DHT22;9971;52.446;13.452;2023-02-27T09:48:46;12.60;84.50
19646;DHT22;9971;52.446;13.452;2023-02-27T09:53:48;9.30;91.60
19646;DHT22;9971;52.446;13.452;2023-02-27T09:58:54;7.80;95.20
19646;DHT22;9971;52.446;13.452;2023-02-27T10:04:18;7.30;97.20
19646;DHT22;9971;52.446;13.452;2023-02-27T10:10:08;7.10;97.90
19646;DHT22;9971;52.446;13.452;2023-02-27T10:14:55;7.00;99.50
19646;DHT22;9971;52.446;13.452;2023-02-27T10:19:54;7.10;99.00
19646;DHT22;9971;52.446;13.452;2023-02-27T10:25:02;7.10;97.90
19646;DHT22;9971;52.446;13.452;2023-02-27T10:30:21;7.20;95.00
19646;DHT22;9971;52.446;13.452;2023-02-27T10:35:27;7.30;95.40
19646;DHT22;9971;52.446;13.452;2023-02-27T10:40:28;7.30;94.80
19646;DHT22;9971;52.446;13.452;2023-02-27T10:45:30;7.50;94.40
19646;DHT22;9971;52.446;13.452;2023-02-27T10:50:36;7.60;93.40
19646;DHT22;9971;52.446;13.452;2023-02-27T10:55:36;7.70;92.20
19646;DHT22;9971;52.446;13.452;2023-02-27T11:00:40;7.80;91.30
19646;DHT22;9971;52.446;13.452;2023-02-27T11:05:40;8.00;93.80
19646;DHT22;9971;52.446;13.452;2023-02-27T11:16:01;8.30;90.30
19646;DHT22;9971;52.446;13.452;2023-02-27T11:21:22;8.40;88.90
19646;DHT22;9971;52.446;13.452;2023-02-27T11:26:31;8.60;91.10
19646;DHT22;9971;52.446;13.452;2023-02-27T11:31:34;8.50;85.20
19646;DHT22;9971;52.446;13.452;2023-02-27T11:36:47;8.30;84.70
19646;DHT22;9971;52.446;13.452;2023-02-27T11:41:48;8.00;85.10
19646;DHT22;9971;52.446;13.452;2023-02-27T11:46:51;7.80;87.10
19646;DHT22;9971;52.446;13.452;2023-02-27T11:52:02;7.70;88.40
19646;DHT22;9971;52.446;13.452;2023-02-27T11:57:01;7.60;86.50
19646;DHT22;9971;52.446;13.452;2023-02-27T12:02:04;7.60;87.90
19646;DHT22;9971;52.446;13.452;2023-02-27T12:07:05;7.70;87.40
19646;DHT22;9971;52.446;13.452;2023-02-27T12:12:10;7.70;89.50
19646;DHT22;9971;52.446;13.452;2023-02-27T12:17:14;7.90;85.50
19646;DHT22;9971;52.446;13.452;2023-02-27T12:22:19;7.90;84.40
19646;DHT22;9971;52.446;13.452;2023-02-27T12:27:23;8.20;84.10
19646;DHT22;9971;52.446;13.452;2023-02-27T12:32:27;8.30;80.40
19646;DHT22;9971;52.446;13.452;2023-02-27T12:37:27;8.20;76.50
19646;DHT22;9971;52.446;13.452;2023-02-27T12:42:49;8.00;74.80
19646;DHT22;9971;52.446;13.452;2023-02-27T12:53:21;8.00;85.20
19646;DHT22;9971;52.446;13.452;2023-02-27T12:58:29;7.90;86.60
19646;DHT22;9971;52.446;13.452;2023-02-27T13:03:32;7.90;85.80
19646;DHT22;9971;52.446;13.452;2023-02-27T13:08:52;7.90;84.40
19646;DHT22;9971;52.446;13.452;2023-02-27T13:14:00;7.90;82.20
19646;DHT22;9971;52.446;13.452;2023-02-27T13:19:03;7.80;80.00
19646;DHT22;9971;52.446;13.452;2023-02-27T13:24:08;7.70;76.90
19646;DHT22;9971;52.446;13.452;2023-02-27T13:29:05;8.20;78.90
19646;DHT22;9971;52.446;13.452;2023-02-27T13:34:12;8.70;74.60
19646;DHT22;9971;52.446;13.452;2023-02-27T13:44:39;9.40;73.60
19646;DHT22;9971;52.446;13.452;2023-02-27T13:49:41;9.30;72.80
19646;DHT22;9971;52.446;13.452;2023-02-27T13:54:45;9.10;71.60
19646;DHT22;9971;52.446;13.452;2023-02-27T13:59:54;9.00;74.30
19646;DHT22;9971;52.446;13.452;2023-02-27T14:04:56;8.80;77.10
19646;DHT22;9971;52.446;13.452;2023-02-27T14:10:00;9.00;82.70
19646;DHT22;9971;52.446;13.452;2023-02-27T14:15:04;9.40;87.60
19646;DHT22;9971;52.446;13.452;2023-02-27T14:25:30;10.40;91.40
19646;DHT22;9971;52.446;13.452;2023-02-27T14:30:35;10.90;91.60
19646;DHT22;9971;52.446;13.452;2023-02-27T14:35:36;11.30;91.50
19646;DHT22;9971;52.446;13.452;2023-02-27T14:40:42;11.70;91.80
19646;DHT22;9971;52.446;13.452;2023-02-27T14:45:41;11.90;92.40
19646;DHT22;9971;52.446;13.452;2023-02-27T14:50:43;12.20;93.40
19646;DHT22;9971;52.446;13.452;2023-02-27T14:55:51;12.50;93.80
19646;DHT22;9971;52.446;13.452;2023-02-27T15:00:56;12.60;94.50
19646;DHT22;9971;52.446;13.452;2023-02-27T15:05:51;12.90;95.40
19646;DHT22;9971;52.446;13.452;2023-02-27T15:10:53;13.00;96.20
19646;DHT22;9971;52.446;13.452;2023-02-27T15:21:11;13.40;97.60
19646;DHT22;9971;52.446;13.452;2023-02-27T15:26:11;13.60;98.40
19646;DHT22;9971;52.446;13.452;2023-02-27T15:31:16;13.70;98.80
19646;DHT22;9971;52.446;13.452;2023-02-27T15:36:24;13.80;99.40
19646;DHT22;9971;52.446;13.452;2023-02-27T15:41:25;14.00;99.90
19646;DHT22;9971;52.446;13.452;2023-02-27T15:46:27;14.10;99.90
19646;DHT22;9971;52.446;13.452;2023-02-27T15:51:30;14.20;99.90
19646;DHT22;9971;52.446;13.452;2023-02-27T15:56:33;14.30;99.90
19646;DHT22;9971;52.446;13.452;2023-02-27T16:01:34;14.40;99.90
19646;DHT22;9971;52.446;13.452;2023-02-27T16:06:38;14.50;99.90
19646;DHT22;9971;52.446;13.452;2023-02-27T16:11:39;14.60;99.90
19646;DHT22;9971;52.446;13.452;2023-02-27T16:16:51;14.70;99.90
19646;DHT22;9971;52.446;13.452;2023-02-27T16:22:10;14.70;99.90
19646;DHT22;9971;52.446;13.452;2023-02-27T16:27:14;14.80;99.90
19646;DHT22;9971;52.446;13.452;2023-02-27T16:37:20;15.00;99.90
19646;DHT22;9971;52.446;13.452;2023-02-27T16:42:21;15.00;99.90
19646;DHT22;9971;52.446;13.452;2023-02-27T16:47:23;15.10;99.90
19646;DHT22;9971;52.446;13.452;2023-02-27T16:52:26;15.10;99.90
19646;DHT22;9971;52.446;13.452;2023-02-27T16:57:28;15.10;99.90
19646;DHT22;9971;52.446;13.452;2023-02-27T17:02:31;15.20;99.90
19646;DHT22;9971;52.446;13.452;2023-02-27T17:07:34;15.20;99.90
19646;DHT22;9971;52.446;13.452;2023-02-27T17:12:36;15.20;99.90
19646;DHT22;9971;52.446;13.452;2023-02-27T17:17:38;15.30;99.90
19646;DHT22;9971;52.446;13.452;2023-02-27T17:22:41;15.40;99.90
19646;DHT22;9971;52.446;13.452;2023-02-27T17:27:42;15.40;99.90
19646;DHT22;9971;52.446;13.452;2023-02-27T17:32:44;15.40;99.90
19646;DHT22;9971;52.446;13.452;2023-02-27T17:37:47;15.40;99.90
19646;DHT22;9971;52.446;13.452;2023-02-27T17:42:49;15.40;99.90
19646;DHT22;9971;52.446;13.452;2023-02-27T17:47:52;15.50;99.90
19646;DHT22;9971;52.446;13.452;2023-02-27T17:52:54;15.50;99.90
19646;DHT22;9971;52.446;13.452;2023-02-27T17:57:56;15.50;99.90
19646;DHT22;9971;52.446;13.452;2023-02-27T18:02:59;15.50;99.90
19646;DHT22;9971;52.446;13.452;2023-02-27T18:08:01;15.50;99.90
19646;DHT22;9971;52.446;13.452;2023-02-27T18:13:04;15.60;99.90
19646;DHT22;9971;52.446;13.452;2023-02-27T18:18:06;15.60;99.90
19646;DHT22;9971;52.446;13.452;2023-02-27T18:23:08;15.60;99.90
19646;DHT22;9971;52.446;13.452;2023-02-27T18:28:10;15.60;99.90
19646;DHT22;9971;52.446;13.452;2023-02-27T18:33:13;15.60;99.90
19646;DHT22;9971;52.446;13.452;2023-02-27T18:38:15;15.60;99.90
19646;DHT22;9971;52.446;13.452;2023-02-27T18:43:17;15.70;99.90
19646;DHT22;9971;52.446;13.452;2023-02-27T18:48:20;15.70;99.90
19646;DHT22;9971;52.446;13.452;2023-02-27T18:53:22;15.60;99.90
19646;DHT22;9971;52.446;13.452;2023-02-27T18:58:25;15.60;99.90
19646;DHT22;9971;52.446;13.452;2023-02-27T19:03:27;15.70;99.90
19646;DHT22;9971;52.446;13.452;2023-02-27T19:08:29;15.70;99.90
19646;DHT22;9971;52.446;13.452;2023-02-27T19:13:31;15.70;99.90
19646;DHT22;9971;52.446;13.452;2023-02-27T19:18:34;15.70;99.90
19646;DHT22;9971;52.446;13.452;2023-02-27T19:23:36;15.60;99.90
19646;DHT22;9971;52.446;13.452;2023-02-27T19:28:38;15.70;99.90
19646;DHT22;9971;52.446;13.452;2023-02-27T19:33:41;15.70;99.90
19646;DHT22;9971;52.446;13.452;2023-02-27T19:38:44;15.70;99.90
19646;DHT22;9971;52.446;13.452;2023-02-27T19:43:46;15.70;99.90
19646;DHT22;9971;52.446;13.452;2023-02-27T19:48:48;15.70;99.90
19646;DHT22;9971;52.446;13.452;2023-02-27T19:53:50;15.70;99.90
19646;DHT22;9971;52.446;13.452;2023-02-27T19:58:52;15.70;99.90
19646;DHT22;9971;52.446;13.452;2023-02-27T20:03:54;15.70;99.90
19646;DHT22;9971;52.446;13.452;2023-02-27T20:08:56;15.80;99.90
19646;DHT22;9971;52.446;13.452;2023-02-27T20:13:58;15.80;99.90
19646;DHT22;9971;52.446;13.452;2023-02-27T20:19:01;15.80;99.90
19646;DHT22;9971;52.446;13.452;2023-02-27T20:24:02;15.80;99.90
19646;DHT22;9971;52.446;13.452;2023-02-27T20:29:07;15.80;99.90
19646;DHT22;9971;52.446;13.452;2023-02-27T20:34:08;15.80;99.90
19646;DHT22;9971;52.446;13.452;2023-02-27T20:39:10;15.90;99.90
19646;DHT22;9971;52.446;13.452;2023-02-27T20:44:11;15.90;99.90
19646;DHT22;9971;52.446;13.452;2023-02-27T20:49:13;15.90;99.90
19646;DHT22;9971;52.446;13.452;2023-02-27T20:54:16;15.90;99.90
19646;DHT22;9971;52.446;13.452;2023-02-27T20:59:18;15.90;99.90
19646;DHT22;9971;52.446;13.452;2023-02-27T21:04:22;15.90;99.90
19646;DHT22;9971;52.446;13.452;2023-02-27T21:09:22;15.90;99.90
19646;DHT22;9971;52.446;13.452;2023-02-27T21:14:25;15.90;99.90
19646;DHT22;9971;52.446;13.452;2023-02-27T21:19:27;15.90;99.90
19646;DHT22;9971;52.446;13.452;2023-02-27T21:24:29;15.90;99.90
19646;DHT22;9971;52.446;13.452;2023-02-27T21:29:32;15.90;99.90
19646;DHT22;9971;52.446;13.452;2023-02-27T21:34:34;15.90;99.90
19646;DHT22;9971;52.446;13.452;2023-02-27T21:39:36;15.90;99.90
19646;DHT22;9971;52.446;13.452;2023-02-27T21:44:39;15.90;99.90
19646;DHT22;9971;52.446;13.452;2023-02-27T21:49:42;15.90;99.90
19646;DHT22;9971;52.446;13.452;2023-02-27T21:54:44;15.90;99.90
19646;DHT22;9971;52.446;13.452;2023-02-27T21:59:47;15.90;99.90
19646;DHT22;9971;52.446;13.452;2023-02-27T22:04:49;15.90;99.90
19646;DHT22;9971;52.446;13.452;2023-02-27T22:09:52;15.90;99.90
19646;DHT22;9971;52.446;13.452;2023-02-27T22:14:54;15.90;99.90
19646;DHT22;9971;52.446;13.452;2023-02-27T22:19:57;15.90;99.90
19646;DHT22;9971;52.446;13.452;2023-02-27T22:24:59;15.90;99.90
19646;DHT22;9971;52.446;13.452;2023-02-27T22:30:02;15.90;99.90
19646;DHT22;9971;52.446;13.452;2023-02-27T22:35:05;15.90;99.90
19646;DHT22;9971;52.446;13.452;2023-02-27T22:40:08;15.90;99.90
19646;DHT22;9971;52.446;13.452;2023-02-27T22:45:10;15.90;99.90
19646;DHT22;9971;52.446;13.452;2023-02-27T22:50:13;15.90;99.90
19646;DHT22;9971;52.446;13.452;2023-02-27T22:55:15;15.90;99.90
19646;DHT22;9971;52.446;13.452;2023-02-27T23:00:18;15.90;99.90
19646;DHT22;9971;52.446;13.452;2023-02-27T23:05:20;15.90;99.90
19646;DHT22;9971;52.446;13.452;2023-02-27T23:10:23;15.90;99.90
19646;DHT22;9971;52.446;13.452;2023-02-27T23:15:25;15.90;99.90
19646;DHT22;9971;52.446;13.452;2023-02-27T23:20:28;15.90;99.90
19646;DHT22;9971;52.446;13.452;2023-02-27T23:25:34;15.90;99.90
19646;DHT22;9971;52.446;13.452;2023-02-27T23:30:36;15.90;99.90
19646;DHT22;9971;52.446;13.452;2023-02-27T23:35:38;15.90;99.90
19646;DHT22;9971;52.446;13.452;2023-02-27T23:40:41;15.90;99.90
19646;DHT22;9971;52.446;13.452;2023-02-27T23:45:43;15.90;99.90
19646;DHT22;9971;52.446;13.452;2023-02-27T23:50:46;15.90;99.90
19646;DHT22;9971;52.446;13.452;2023-02-27T23:55:48;15.80;99.90
